Time;durP1;ratioP1;P1;durP2;ratioP2;P2;SDS_P1;SDS_P2;PMS_P1;PMS_P2;Temp;Humidity;BMP_temperature;BMP_pressure;BME280_temperature;BME280_humidity;BME280_pressure;Samples;Min_cycle;Max_cycle;Signal;HPM_P1;HPM_P2
2022/02/01 00:03:32;;;;;;;34.30;14.93;;;;;;;;;;5102199;28;20373;-81
2022/02/01 00:09:13;;;;;;;40.90;15.30;;;;;;;;;;5060269;28;20809;-83
2022/02/01 00:11:54;;;;;;;41.17;16.73;;;;;;;;;;5079782;28;20376;-82
2022/02/01 00:14:34;;;;;;;43.35;17.02;;;;;;;;;;5078269;28;20429;-82
2022/02/01 00:41:27;;;;;;;47.50;20.88;;;;;;;;;;5108850;28;20386;-82
2022/02/01 00:43:53;;;;;;;43.33;19.10;;;;;;;;;;5093143;28;20389;-82
2022/02/01 00:46:19;;;;;;;45.10;19.33;;;;;;;;;;5090551;28;20394;-82
2022/02/01 00:48:45;;;;;;;50.20;21.77;;;;;;;;;;5092669;28;20378;-81
2022/02/01 00:51:12;;;;;;;50.13;21.30;;;;;;;;;;5092408;28;20383;-82
2022/02/01 00:53:40;;;;;;;45.10;21.30;;;;;;;;;;5094777;28;20369;-80
2022/02/01 00:56:07;;;;;;;44.55;20.77;;;;;;;;;;5094758;28;20830;-81
2022/02/01 00:58:33;;;;;;;48.85;21.98;;;;;;;;;;5092581;28;20372;-83
2022/02/01 01:00:59;;;;;;;41.93;20.60;;;;;;;;;;5075144;28;20415;-82
2022/02/01 01:03:25;;;;;;;44.25;21.48;;;;;;;;;;5074803;28;20427;-82
2022/02/01 01:05:51;;;;;;;48.40;21.05;;;;;;;;;;5079383;28;20458;-81
2022/02/01 01:08:17;;;;;;;49.70;22.30;;;;;;;;;;5114535;28;20363;-81
2022/02/01 01:10:43;;;;;;;48.10;21.33;;;;;;;;;;5113602;28;20783;-81
2022/02/01 01:16:11;;;;;;;46.42;21.08;;;;;;;;;;5097060;28;20403;-81
2022/02/01 01:53:54;;;;;;;44.63;21.63;;;;;;;;;;5108827;28;20436;-83
2022/02/01 01:56:21;;;;;;;39.63;21.33;;;;;;;;;;5098759;28;20951;-82
2022/02/01 01:58:47;;;;;;;42.42;21.17;;;;;;;;;;5106313;28;20374;-82
2022/02/01 02:01:14;;;;;;;38.60;20.65;;;;;;;;;;5091808;28;20486;-81
2022/02/01 02:03:44;;;;;;;42.60;21.92;;;;;;;;;;5091066;28;20372;-82
2022/02/01 02:06:11;;;;;;;41.30;20.35;;;;;;;;;;5093838;28;20379;-82
2022/02/01 02:08:38;;;;;;;40.88;20.90;;;;;;;;;;5093410;28;21006;-81
2022/02/01 02:11:13;;;;;;;42.45;21.98;;;;;;;;;;5090005;28;20383;-82
2022/02/01 02:16:32;;;;;;;43.78;21.58;;;;;;;;;;5097695;28;20453;-82
2022/02/01 02:18:58;;;;;;;40.93;21.50;;;;;;;;;;5091319;28;20812;-82
2022/02/01 02:21:24;;;;;;;43.13;22.52;;;;;;;;;;5080039;28;20391;-82
2022/02/01 02:23:50;;;;;;;37.45;20.90;;;;;;;;;;5092870;28;20382;-81
2022/02/01 02:26:17;;;;;;;40.55;22.60;;;;;;;;;;5079894;28;20372;-81
2022/02/01 02:28:44;;;;;;;39.95;22.25;;;;;;;;;;5095398;28;20393;-81
2022/02/01 02:31:10;;;;;;;41.97;22.38;;;;;;;;;;5097153;28;20433;-81
2022/02/01 02:33:36;;;;;;;42.87;22.63;;;;;;;;;;5091589;28;20411;-83
2022/02/01 02:36:07;;;;;;;43.53;22.65;;;;;;;;;;5096516;28;20377;-81
2022/02/01 02:38:39;;;;;;;43.37;22.33;;;;;;;;;;5082862;28;20554;-82
2022/02/01 02:46:37;;;;;;;40.27;23.23;;;;;;;;;;5095436;28;20470;-82
2022/02/01 02:49:05;;;;;;;44.58;23.38;;;;;;;;;;5091039;28;20387;-82
2022/02/01 02:51:31;;;;;;;40.03;23.08;;;;;;;;;;5091043;28;20481;-81
2022/02/01 02:53:57;;;;;;;39.10;23.05;;;;;;;;;;5073376;28;20385;-82
2022/02/01 02:56:23;;;;;;;43.30;22.50;;;;;;;;;;5080151;28;20380;-82
2022/02/01 02:58:52;;;;;;;36.22;21.80;;;;;;;;;;5089844;28;20390;-82
2022/02/01 03:01:21;;;;;;;46.20;24.42;;;;;;;;;;5093148;28;20405;-82
2022/02/01 03:03:47;;;;;;;43.20;23.80;;;;;;;;;;5082554;28;20376;-82
2022/02/01 03:06:13;;;;;;;39.22;23.35;;;;;;;;;;5097009;28;20377;-81
2022/02/01 03:08:39;;;;;;;41.55;23.63;;;;;;;;;;5073579;28;20390;-82
2022/02/01 03:11:11;;;;;;;41.30;23.58;;;;;;;;;;5090742;28;20427;-82
2022/02/01 03:13:38;;;;;;;46.50;25.52;;;;;;;;;;5071767;28;20381;-82
2022/02/01 03:16:24;;;;;;;41.90;23.95;;;;;;;;;;5074626;28;20441;-82
2022/02/01 03:21:35;;;;;;;42.97;25.38;;;;;;;;;;5090082;28;20475;-82
2022/02/01 03:24:01;;;;;;;45.45;25.52;;;;;;;;;;5094526;28;20842;-82
2022/02/01 03:26:27;;;;;;;44.73;25.50;;;;;;;;;;5104087;28;20448;-82
2022/02/01 03:28:53;;;;;;;42.40;25.45;;;;;;;;;;5086843;28;20878;-82
2022/02/01 03:31:19;;;;;;;42.88;25.08;;;;;;;;;;5095518;28;20407;-82
2022/02/01 03:33:45;;;;;;;44.47;23.90;;;;;;;;;;5077794;28;20418;-81
2022/02/01 03:36:11;;;;;;;46.40;26.52;;;;;;;;;;5100416;28;20393;-81
2022/02/01 03:38:37;;;;;;;44.70;25.92;;;;;;;;;;5071489;28;20485;-81
2022/02/01 03:41:04;;;;;;;47.05;26.92;;;;;;;;;;5075728;28;20406;-82
2022/02/01 03:43:30;;;;;;;44.05;27.08;;;;;;;;;;5089126;28;20377;-81
2022/02/01 03:45:56;;;;;;;44.92;27.25;;;;;;;;;;5093129;28;20424;-81
2022/02/01 03:48:22;;;;;;;44.83;27.17;;;;;;;;;;5103599;28;20375;-82
2022/02/01 03:50:48;;;;;;;47.25;27.27;;;;;;;;;;5084287;28;20749;-81
2022/02/01 03:53:14;;;;;;;43.83;26.17;;;;;;;;;;5090684;28;20382;-81
2022/02/01 03:55:40;;;;;;;42.40;27.00;;;;;;;;;;5085948;28;20388;-81
2022/02/01 03:58:07;;;;;;;48.38;26.98;;;;;;;;;;5105211;28;20382;-81
2022/02/01 04:00:33;;;;;;;42.03;26.10;;;;;;;;;;5100001;28;20498;-82
2022/02/01 04:03:03;;;;;;;40.22;25.42;;;;;;;;;;5091923;28;20422;-81
2022/02/01 04:05:29;;;;;;;42.47;25.23;;;;;;;;;;5092609;28;20392;-81
2022/02/01 04:07:55;;;;;;;43.75;25.02;;;;;;;;;;5103144;28;20435;-80
2022/02/01 04:10:21;;;;;;;43.45;26.13;;;;;;;;;;5103283;28;20380;-80
2022/02/01 04:12:50;;;;;;;41.03;25.90;;;;;;;;;;5090235;28;20980;-81
2022/02/01 04:15:19;;;;;;;43.45;25.75;;;;;;;;;;5098691;28;20383;-80
2022/02/01 04:17:45;;;;;;;40.22;26.38;;;;;;;;;;5092681;28;20384;-82
2022/02/01 04:20:11;;;;;;;45.47;25.67;;;;;;;;;;5107833;28;20403;-82
2022/02/01 04:22:37;;;;;;;44.42;25.98;;;;;;;;;;5099414;28;20391;-82
2022/02/01 04:25:03;;;;;;;47.63;26.67;;;;;;;;;;5094233;28;20380;-81
2022/02/01 04:27:32;;;;;;;45.08;25.67;;;;;;;;;;5107928;28;20429;-82
2022/02/01 04:30:07;;;;;;;45.15;25.73;;;;;;;;;;5076388;28;20379;-81
2022/02/01 04:32:40;;;;;;;40.25;26.73;;;;;;;;;;5093778;28;20459;-81
2022/02/01 04:35:08;;;;;;;41.70;26.65;;;;;;;;;;5105701;28;20741;-81
2022/02/01 04:37:34;;;;;;;40.00;26.95;;;;;;;;;;5087705;28;20781;-82
2022/02/01 04:40:00;;;;;;;41.87;25.90;;;;;;;;;;5093404;28;20403;-81
2022/02/01 04:42:30;;;;;;;45.05;27.70;;;;;;;;;;5096605;28;20474;-81
2022/02/01 04:44:58;;;;;;;44.13;26.90;;;;;;;;;;5078474;28;20408;-81
2022/02/01 04:47:29;;;;;;;41.03;26.67;;;;;;;;;;5110695;28;20395;-81
2022/02/01 04:49:55;;;;;;;44.13;27.60;;;;;;;;;;5095877;28;20386;-81
2022/02/01 04:52:21;;;;;;;41.90;27.48;;;;;;;;;;5112487;28;20382;-81
2022/02/01 04:54:47;;;;;;;43.90;28.63;;;;;;;;;;5094914;28;21096;-80
2022/02/01 04:57:13;;;;;;;47.60;27.70;;;;;;;;;;5113880;28;20526;-81
2022/02/01 04:59:39;;;;;;;45.40;28.43;;;;;;;;;;5107140;28;21017;-80
2022/02/01 05:02:05;;;;;;;47.33;28.92;;;;;;;;;;5097581;28;20388;-81
2022/02/01 05:04:31;;;;;;;48.70;27.85;;;;;;;;;;5114760;28;20923;-80
2022/02/01 05:06:57;;;;;;;46.55;28.55;;;;;;;;;;5091413;28;20390;-81
2022/02/01 05:09:24;;;;;;;43.20;27.13;;;;;;;;;;5098632;28;20470;-81
2022/02/01 05:11:52;;;;;;;46.15;28.70;;;;;;;;;;5094365;28;20371;-80
2022/02/01 05:14:29;;;;;;;45.90;28.67;;;;;;;;;;5108422;28;20390;-81
2022/02/01 05:21:54;;;;;;;46.58;28.80;;;;;;;;;;5102068;28;20933;-81
2022/02/01 05:24:21;;;;;;;40.03;27.35;;;;;;;;;;5098583;28;20389;-81
2022/02/01 05:26:47;;;;;;;42.33;27.88;;;;;;;;;;5096177;28;20893;-81
2022/02/01 05:29:14;;;;;;;46.08;27.58;;;;;;;;;;5096730;28;20432;-81
2022/02/01 05:31:39;;;;;;;42.13;27.73;;;;;;;;;;5091075;28;20951;-81
2022/02/01 05:34:05;;;;;;;40.58;27.20;;;;;;;;;;5092999;28;20396;-81
2022/02/01 05:36:31;;;;;;;40.45;26.85;;;;;;;;;;5092982;28;20369;-82
2022/02/01 05:38:58;;;;;;;44.92;27.60;;;;;;;;;;5086005;28;20398;-81
2022/02/01 05:41:26;;;;;;;44.03;26.97;;;;;;;;;;5095163;28;20511;-82
2022/02/01 05:43:52;;;;;;;44.63;28.70;;;;;;;;;;5095195;28;20419;-81
2022/02/01 05:46:18;;;;;;;46.97;27.60;;;;;;;;;;5094284;28;20396;-81
2022/02/01 05:48:44;;;;;;;42.60;26.75;;;;;;;;;;5112491;28;20370;-81
2022/02/01 05:51:10;;;;;;;42.13;26.73;;;;;;;;;;5098612;28;20889;-81
2022/02/01 05:53:36;;;;;;;44.38;27.42;;;;;;;;;;5099179;28;20388;-81
2022/02/01 05:56:02;;;;;;;41.50;27.10;;;;;;;;;;5091345;28;20379;-81
2022/02/01 05:58:28;;;;;;;47.05;28.17;;;;;;;;;;5100137;28;20463;-81
2022/02/01 06:00:54;;;;;;;46.90;27.42;;;;;;;;;;5089910;28;20493;-81
2022/02/01 06:03:20;;;;;;;46.17;28.27;;;;;;;;;;5113679;28;20579;-82
2022/02/01 06:05:46;;;;;;;45.80;27.70;;;;;;;;;;5086479;28;20463;-81
2022/02/01 06:08:12;;;;;;;43.15;27.85;;;;;;;;;;5112464;28;20450;-81
2022/02/01 06:10:39;;;;;;;44.22;27.65;;;;;;;;;;5099246;28;20420;-81
2022/02/01 06:13:05;;;;;;;44.08;27.38;;;;;;;;;;5092969;28;20372;-82
2022/02/01 06:15:31;;;;;;;42.85;27.13;;;;;;;;;;5097095;28;20375;-82
2022/02/01 06:17:57;;;;;;;45.80;27.43;;;;;;;;;;5076128;28;20866;-83
2022/02/01 06:20:23;;;;;;;46.15;26.90;;;;;;;;;;5092701;28;20454;-81
2022/02/01 06:22:49;;;;;;;43.27;26.03;;;;;;;;;;5114108;28;20374;-82
2022/02/01 06:25:21;;;;;;;48.97;27.42;;;;;;;;;;5098438;28;20384;-82
2022/02/01 06:27:47;;;;;;;45.67;25.73;;;;;;;;;;5082929;28;20532;-81
2022/02/01 06:30:13;;;;;;;43.17;25.90;;;;;;;;;;5099709;28;20447;-82
2022/02/01 06:32:40;;;;;;;44.70;25.10;;;;;;;;;;5113396;28;20384;-82
2022/02/01 06:35:07;;;;;;;40.25;22.45;;;;;;;;;;5106518;28;20400;-81
2022/02/01 06:37:33;;;;;;;38.47;22.47;;;;;;;;;;5096858;28;20386;-81
2022/02/01 06:39:59;;;;;;;39.50;21.75;;;;;;;;;;5105817;28;20400;-81
2022/02/01 06:42:26;;;;;;;36.10;21.30;;;;;;;;;;5115012;28;20370;-82
2022/02/01 06:44:52;;;;;;;35.95;20.15;;;;;;;;;;5096979;27;20403;-80
2022/02/01 06:47:18;;;;;;;37.13;19.80;;;;;;;;;;5083918;28;20463;-81
2022/02/01 06:49:46;;;;;;;36.38;18.60;;;;;;;;;;5093159;28;20373;-81
2022/02/01 06:52:12;;;;;;;31.60;18.00;;;;;;;;;;5081648;28;20524;-81
2022/02/01 06:54:40;;;;;;;37.30;18.40;;;;;;;;;;5096626;28;20498;-82
2022/02/01 06:57:07;;;;;;;38.65;17.95;;;;;;;;;;5095750;28;20386;-81
2022/02/01 06:59:33;;;;;;;32.35;17.77;;;;;;;;;;5114618;28;20398;-81
2022/02/01 07:01:59;;;;;;;32.85;16.35;;;;;;;;;;5113091;28;20382;-81
2022/02/01 07:04:25;;;;;;;32.07;16.07;;;;;;;;;;5073517;28;20384;-82
2022/02/01 07:06:51;;;;;;;30.23;15.32;;;;;;;;;;5090570;28;20990;-82
2022/02/01 07:09:19;;;;;;;29.05;14.90;;;;;;;;;;5091821;28;20382;-81
2022/02/01 07:11:45;;;;;;;29.23;14.05;;;;;;;;;;5093030;28;20408;-81
2022/02/01 07:14:11;;;;;;;32.72;14.82;;;;;;;;;;5090543;28;20426;-82
2022/02/01 07:16:37;;;;;;;26.20;13.55;;;;;;;;;;5076391;28;20949;-81
2022/02/01 07:19:03;;;;;;;32.88;13.63;;;;;;;;;;5075550;28;20797;-80
2022/02/01 07:21:29;;;;;;;24.08;11.55;;;;;;;;;;5095649;28;20400;-81
2022/02/01 07:23:56;;;;;;;29.37;13.27;;;;;;;;;;5090916;28;20988;-81
2022/02/01 07:26:25;;;;;;;25.98;12.43;;;;;;;;;;5073909;28;20444;-82
2022/02/01 07:28:51;;;;;;;24.50;11.57;;;;;;;;;;5074221;28;20392;-81
2022/02/01 07:31:18;;;;;;;26.35;11.55;;;;;;;;;;5091433;28;20803;-81
2022/02/01 07:33:44;;;;;;;25.33;11.25;;;;;;;;;;5092473;28;20385;-81
2022/02/01 07:36:15;;;;;;;26.45;11.00;;;;;;;;;;5091990;28;20368;-81
2022/02/01 07:38:41;;;;;;;25.30;10.15;;;;;;;;;;5074140;28;20400;-82
2022/02/01 07:41:07;;;;;;;27.17;10.75;;;;;;;;;;5094447;28;20395;-81
2022/02/01 07:43:33;;;;;;;28.42;11.30;;;;;;;;;;5093677;28;20400;-81
2022/02/01 07:46:04;;;;;;;27.90;10.83;;;;;;;;;;5114712;28;20458;-81
2022/02/01 07:48:30;;;;;;;28.65;10.40;;;;;;;;;;5112710;28;20377;-81
2022/02/01 07:50:56;;;;;;;22.50;10.43;;;;;;;;;;5112670;28;20374;-82
2022/02/01 07:53:22;;;;;;;25.10;10.43;;;;;;;;;;5092383;28;20387;-82
2022/02/01 07:55:48;;;;;;;26.58;10.02;;;;;;;;;;5094804;28;20398;-81
2022/02/01 07:58:14;;;;;;;25.70;9.57;;;;;;;;;;5111483;28;20375;-81
2022/02/01 08:00:40;;;;;;;24.83;9.77;;;;;;;;;;5114354;28;21010;-81
2022/02/01 08:03:06;;;;;;;22.58;8.93;;;;;;;;;;5112487;28;20469;-82
2022/02/01 08:05:33;;;;;;;26.93;10.10;;;;;;;;;;5093333;28;20804;-81
2022/02/01 08:08:01;;;;;;;21.65;8.80;;;;;;;;;;5090659;28;20382;-82
2022/02/01 08:10:33;;;;;;;22.60;8.85;;;;;;;;;;5111911;28;20370;-82
2022/02/01 08:21:04;;;;;;;22.67;8.73;;;;;;;;;;5094863;28;20416;-81
2022/02/01 08:23:30;;;;;;;26.53;8.53;;;;;;;;;;5092931;28;20481;-81
2022/02/01 08:25:58;;;;;;;24.98;8.57;;;;;;;;;;5076857;28;20391;-82
2022/02/01 08:28:24;;;;;;;26.40;9.02;;;;;;;;;;5073948;28;20477;-81
2022/02/01 08:30:50;;;;;;;24.17;8.35;;;;;;;;;;5075962;28;20403;-81
2022/02/01 08:33:17;;;;;;;20.90;7.72;;;;;;;;;;5091535;28;20373;-82
2022/02/01 08:35:42;;;;;;;26.08;8.38;;;;;;;;;;5090852;28;20858;-81
2022/02/01 08:38:08;;;;;;;25.03;8.47;;;;;;;;;;5107206;28;20378;-81
2022/02/01 08:40:34;;;;;;;25.27;7.63;;;;;;;;;;5091186;28;20930;-82
2022/02/01 08:43:00;;;;;;;24.40;7.97;;;;;;;;;;5089131;28;20386;-82
2022/02/01 08:45:27;;;;;;;21.30;7.43;;;;;;;;;;5094009;28;20378;-82
2022/02/01 08:47:54;;;;;;;22.30;6.97;;;;;;;;;;5094733;28;20792;-81
2022/02/01 08:50:24;;;;;;;19.75;7.15;;;;;;;;;;5091857;28;20378;-81
2022/02/01 08:52:52;;;;;;;21.40;7.20;;;;;;;;;;5093616;28;20377;-81
2022/02/01 08:55:21;;;;;;;25.38;7.63;;;;;;;;;;5090929;28;20482;-81
2022/02/01 08:57:48;;;;;;;22.40;6.90;;;;;;;;;;5114893;28;20411;-82
2022/02/01 09:00:18;;;;;;;23.87;6.60;;;;;;;;;;5094524;28;20410;-81
2022/02/01 09:02:44;;;;;;;20.25;6.93;;;;;;;;;;5075923;28;20735;-81
2022/02/01 09:05:10;;;;;;;17.60;6.07;;;;;;;;;;5076370;28;20384;-82
2022/02/01 09:07:36;;;;;;;18.58;6.30;;;;;;;;;;5078662;28;20934;-81
2022/02/01 09:10:03;;;;;;;20.87;6.03;;;;;;;;;;5096280;28;20463;-81
2022/02/01 09:12:29;;;;;;;21.98;6.13;;;;;;;;;;5077381;28;20504;-81
2022/02/01 09:14:55;;;;;;;19.60;6.18;;;;;;;;;;5111903;28;20437;-81
2022/02/01 09:17:21;;;;;;;18.60;6.10;;;;;;;;;;5116060;28;20370;-82
2022/02/01 09:19:47;;;;;;;20.35;6.80;;;;;;;;;;5078450;28;20426;-82
2022/02/01 09:22:14;;;;;;;21.30;6.28;;;;;;;;;;5097857;28;20374;-81
2022/02/01 09:24:41;;;;;;;19.17;5.72;;;;;;;;;;5077349;28;20380;-81
2022/02/01 09:27:07;;;;;;;21.38;6.22;;;;;;;;;;5094218;28;20379;-82
2022/02/01 09:29:33;;;;;;;18.90;6.72;;;;;;;;;;5091556;28;20375;-82
2022/02/01 09:32:00;;;;;;;18.50;5.97;;;;;;;;;;5114432;28;20367;-82
2022/02/01 09:34:26;;;;;;;21.13;6.00;;;;;;;;;;5112030;28;20783;-82
2022/02/01 09:36:53;;;;;;;23.98;6.50;;;;;;;;;;5088543;28;20383;-82
2022/02/01 09:39:20;;;;;;;21.42;6.40;;;;;;;;;;5075029;28;20954;-82
2022/02/01 09:41:47;;;;;;;19.48;5.80;;;;;;;;;;5092971;28;20381;-82
2022/02/01 09:44:13;;;;;;;17.92;5.03;;;;;;;;;;5075061;28;20376;-81
2022/02/01 09:46:39;;;;;;;19.02;5.60;;;;;;;;;;5094257;28;20399;-82
2022/02/01 09:49:08;;;;;;;17.25;5.90;;;;;;;;;;5095302;28;20859;-81
2022/02/01 09:51:34;;;;;;;20.77;6.20;;;;;;;;;;5093321;28;20381;-81
2022/02/01 09:54:01;;;;;;;18.65;5.95;;;;;;;;;;5087240;28;20387;-81
2022/02/01 09:56:27;;;;;;;20.65;5.68;;;;;;;;;;5094401;28;20391;-82
2022/02/01 09:58:56;;;;;;;19.70;5.45;;;;;;;;;;5097544;28;20385;-82
2022/02/01 10:01:23;;;;;;;19.63;5.72;;;;;;;;;;5101708;28;20410;-81
2022/02/01 10:04:00;;;;;;;18.73;6.00;;;;;;;;;;5093493;28;20388;-84
2022/02/01 10:06:29;;;;;;;25.27;5.47;;;;;;;;;;5095446;28;20373;-82
2022/02/01 10:09:03;;;;;;;19.90;4.95;;;;;;;;;;5088131;27;20759;-84
2022/02/01 10:11:35;;;;;;;17.67;4.65;;;;;;;;;;5100667;28;20378;-83
2022/02/01 10:14:03;;;;;;;18.63;5.00;;;;;;;;;;5111661;28;20382;-83
2022/02/01 10:16:32;;;;;;;17.10;5.10;;;;;;;;;;5095742;28;20366;-83
2022/02/01 10:19:08;;;;;;;17.60;4.97;;;;;;;;;;5092100;28;20384;-83
2022/02/01 10:21:34;;;;;;;20.30;5.07;;;;;;;;;;5080768;28;20992;-84
2022/02/01 10:24:05;;;;;;;18.92;4.85;;;;;;;;;;5094051;28;20378;-83
2022/02/01 10:26:33;;;;;;;14.52;4.40;;;;;;;;;;5113479;28;20424;-82
2022/02/01 10:29:04;;;;;;;15.97;4.87;;;;;;;;;;5083845;28;20499;-84
2022/02/01 10:31:43;;;;;;;16.60;4.90;;;;;;;;;;5098042;28;20390;-83
2022/02/01 10:37:02;;;;;;;16.00;4.45;;;;;;;;;;5095287;28;20437;-84
2022/02/01 10:39:29;;;;;;;15.90;4.53;;;;;;;;;;5093430;28;20383;-83
2022/02/01 10:41:59;;;;;;;16.70;4.72;;;;;;;;;;5101868;28;20434;-83
2022/02/01 10:44:37;;;;;;;16.70;4.85;;;;;;;;;;5091894;28;20368;-83
2022/02/01 10:47:03;;;;;;;18.88;5.13;;;;;;;;;;5091724;28;20426;-82
2022/02/01 10:49:30;;;;;;;16.08;5.10;;;;;;;;;;5093575;28;20384;-83
2022/02/01 10:52:15;;;;;;;17.42;5.32;;;;;;;;;;5076619;28;20469;-82
2022/02/01 10:54:42;;;;;;;19.67;5.50;;;;;;;;;;5103185;28;20395;-84
2022/02/01 10:57:10;;;;;;;18.27;5.95;;;;;;;;;;5073668;28;20452;-81
2022/02/01 10:59:36;;;;;;;18.73;5.88;;;;;;;;;;5089098;28;20375;-82
2022/02/01 11:02:03;;;;;;;15.65;5.57;;;;;;;;;;5099076;28;20384;-81
2022/02/01 11:04:30;;;;;;;19.73;6.05;;;;;;;;;;5079999;28;20391;-82
2022/02/01 11:06:56;;;;;;;18.42;5.97;;;;;;;;;;5093825;28;20437;-83
2022/02/01 11:09:23;;;;;;;17.25;6.03;;;;;;;;;;5098179;28;20366;-82
2022/02/01 11:11:53;;;;;;;17.10;6.72;;;;;;;;;;5106278;28;20393;-83
2022/02/01 11:14:21;;;;;;;17.40;6.32;;;;;;;;;;5084712;28;20388;-83
2022/02/01 11:16:47;;;;;;;18.42;6.45;;;;;;;;;;5072302;28;20380;-82
2022/02/01 11:19:13;;;;;;;15.38;6.10;;;;;;;;;;5109419;28;20367;-83
2022/02/01 11:21:57;;;;;;;17.65;6.05;;;;;;;;;;5111539;28;20477;-82
2022/02/01 11:24:36;;;;;;;16.92;6.05;;;;;;;;;;5094927;28;20390;-83
2022/02/01 11:27:03;;;;;;;15.60;5.88;;;;;;;;;;5094162;28;20379;-82
2022/02/01 11:29:38;;;;;;;21.38;6.22;;;;;;;;;;5112722;28;20476;-83
2022/02/01 11:32:04;;;;;;;19.40;5.97;;;;;;;;;;5094480;28;20378;-83
2022/02/01 11:34:32;;;;;;;14.77;5.40;;;;;;;;;;5111919;28;20363;-83
2022/02/01 11:36:59;;;;;;;16.15;5.03;;;;;;;;;;5109784;28;20404;-83
2022/02/01 11:39:25;;;;;;;19.67;5.15;;;;;;;;;;5111451;28;20862;-83
2022/02/01 11:41:53;;;;;;;21.20;5.43;;;;;;;;;;5092144;28;20379;-82
2022/02/01 11:44:25;;;;;;;17.63;5.47;;;;;;;;;;5074200;28;20513;-83
2022/02/01 11:47:10;;;;;;;15.40;4.55;;;;;;;;;;5078069;28;20465;-83
2022/02/01 11:49:37;;;;;;;17.35;5.32;;;;;;;;;;5076756;28;20375;-84
2022/02/01 11:52:14;;;;;;;18.45;5.20;;;;;;;;;;5105004;28;20389;-83
2022/02/01 11:54:42;;;;;;;22.50;10.35;;;;;;;;;;5104353;28;20382;-84
2022/02/01 11:57:28;;;;;;;18.40;5.55;;;;;;;;;;5102522;28;20384;-83
2022/02/01 11:59:53;;;;;;;22.13;6.57;;;;;;;;;;5104817;28;20398;-82
2022/02/01 12:02:23;;;;;;;17.17;5.70;;;;;;;;;;5089745;28;20432;-82
2022/02/01 12:04:50;;;;;;;19.90;7.20;;;;;;;;;;5105712;28;20382;-81
2022/02/01 12:07:22;;;;;;;19.80;6.77;;;;;;;;;;5106921;28;20827;-82
2022/02/01 12:09:48;;;;;;;13.60;5.50;;;;;;;;;;5088024;28;20379;-80
2022/02/01 12:12:16;;;;;;;19.60;6.07;;;;;;;;;;5103522;28;20462;-82
2022/02/01 12:14:42;;;;;;;19.33;6.25;;;;;;;;;;5083189;28;20379;-81
2022/02/01 12:17:09;;;;;;;18.57;6.33;;;;;;;;;;5099440;28;20381;-83
2022/02/01 12:19:35;;;;;;;16.85;5.70;;;;;;;;;;5098933;28;20390;-83
2022/02/01 12:22:05;;;;;;;18.30;5.55;;;;;;;;;;5099966;28;20451;-83
2022/02/01 12:24:32;;;;;;;15.73;5.68;;;;;;;;;;5102877;28;20378;-82
2022/02/01 12:26:58;;;;;;;18.90;5.10;;;;;;;;;;5103192;28;20393;-83
2022/02/01 12:29:26;;;;;;;20.17;5.73;;;;;;;;;;5089204;28;20755;-83
2022/02/01 12:31:53;;;;;;;15.30;5.50;;;;;;;;;;5088485;28;20469;-83
2022/02/01 12:34:20;;;;;;;12.82;4.95;;;;;;;;;;5111721;27;20405;-83
2022/02/01 12:36:53;;;;;;;16.10;4.40;;;;;;;;;;5091439;28;20398;-83
2022/02/01 12:39:32;;;;;;;15.30;5.15;;;;;;;;;;5110424;28;21175;-82
2022/02/01 12:42:04;;;;;;;18.98;4.88;;;;;;;;;;5092960;28;20481;-83
2022/02/01 12:46:59;;;;;;;14.35;4.85;;;;;;;;;;5097455;28;20431;-83
2022/02/01 12:49:33;;;;;;;14.90;4.83;;;;;;;;;;5090479;28;20469;-83
2022/02/01 12:51:59;;;;;;;15.93;4.88;;;;;;;;;;5081861;28;20396;-84
2022/02/01 12:54:27;;;;;;;13.68;4.30;;;;;;;;;;5109233;28;20386;-82
2022/02/01 12:57:14;;;;;;;16.40;4.75;;;;;;;;;;5108736;27;20382;-83
2022/02/01 12:59:44;;;;;;;13.55;5.10;;;;;;;;;;5089853;28;20386;-83
2022/02/01 13:02:12;;;;;;;14.20;4.78;;;;;;;;;;5111746;28;20390;-82
2022/02/01 13:04:40;;;;;;;18.50;5.53;;;;;;;;;;5093142;28;20894;-82
2022/02/01 13:07:18;;;;;;;11.10;4.40;;;;;;;;;;5110196;28;20418;-83
2022/02/01 13:15:29;;;;;;;12.18;4.13;;;;;;;;;;5116482;27;20508;-82
2022/02/01 13:18:14;;;;;;;12.77;4.57;;;;;;;;;;5085047;28;20841;-83
2022/02/01 13:20:42;;;;;;;16.42;5.15;;;;;;;;;;5085390;28;20448;-82
2022/02/01 13:23:08;;;;;;;13.23;5.47;;;;;;;;;;5101182;28;20383;-81
2022/02/01 13:25:44;;;;;;;13.85;4.63;;;;;;;;;;5105485;28;20391;-81
2022/02/01 13:28:11;;;;;;;11.70;4.60;;;;;;;;;;5105079;28;20379;-80
2022/02/01 13:30:38;;;;;;;13.25;5.22;;;;;;;;;;5104746;28;20850;-82
2022/02/01 13:33:07;;;;;;;11.63;4.90;;;;;;;;;;5109351;28;20422;-80
2022/02/01 13:35:34;;;;;;;10.77;4.73;;;;;;;;;;5110675;28;20394;-81
2022/02/01 13:38:09;;;;;;;10.55;4.57;;;;;;;;;;5091026;28;20475;-81
2022/02/01 13:40:36;;;;;;;7.45;4.60;;;;;;;;;;5090201;28;20403;-81
2022/02/01 13:43:11;;;;;;;11.43;5.53;;;;;;;;;;5091036;28;20382;-81
2022/02/01 13:45:37;;;;;;;10.43;5.50;;;;;;;;;;5107992;28;20383;-82
2022/02/01 13:48:03;;;;;;;11.17;5.80;;;;;;;;;;5108969;28;20486;-82
2022/02/01 13:50:32;;;;;;;10.57;5.57;;;;;;;;;;5107852;28;20374;-82
2022/02/01 13:52:59;;;;;;;13.90;6.17;;;;;;;;;;5090513;28;20434;-81
2022/02/01 13:55:27;;;;;;;13.10;6.32;;;;;;;;;;5091266;28;20375;-82
2022/02/01 13:58:06;;;;;;;13.02;6.18;;;;;;;;;;5088942;28;20735;-83
2022/02/01 14:00:44;;;;;;;11.43;5.78;;;;;;;;;;5090455;28;20398;-81
2022/02/01 14:03:32;;;;;;;9.60;6.53;;;;;;;;;;5105735;28;20397;-81
2022/02/01 14:06:01;;;;;;;10.70;6.63;;;;;;;;;;5092141;28;20375;-80
2022/02/01 14:08:39;;;;;;;12.15;7.25;;;;;;;;;;5093599;28;20416;-81
2022/02/01 14:14:19;;;;;;;10.63;7.00;;;;;;;;;;5114843;28;20374;-80
2022/02/01 14:34:55;;;;;;;10.07;7.45;;;;;;;;;;5105856;28;20390;-81
2022/02/01 14:37:30;;;;;;;8.93;7.25;;;;;;;;;;5106584;27;20736;-82
2022/02/01 14:45:16;;;;;;;9.03;6.50;;;;;;;;;;5103302;28;20886;-81
2022/02/01 14:47:42;;;;;;;11.23;6.93;;;;;;;;;;5112216;27;20370;-81
2022/02/01 14:50:08;;;;;;;8.07;6.70;;;;;;;;;;5092731;28;20390;-82
2022/02/01 14:52:34;;;;;;;11.63;7.47;;;;;;;;;;5113141;28;20940;-81
2022/02/01 14:55:10;;;;;;;12.95;8.05;;;;;;;;;;5111285;28;20526;-81
2022/02/01 15:13:41;;;;;;;9.50;8.43;;;;;;;;;;5106506;28;20414;-82
2022/02/01 15:16:07;;;;;;;12.45;9.18;;;;;;;;;;5107258;28;20371;-82
2022/02/01 15:18:34;;;;;;;9.90;8.40;;;;;;;;;;5089359;28;20378;-82
2022/02/01 15:21:02;;;;;;;10.35;8.57;;;;;;;;;;5105200;28;20767;-83
2022/02/01 15:23:28;;;;;;;9.75;8.75;;;;;;;;;;5102935;28;20383;-83
2022/02/01 15:25:54;;;;;;;12.10;8.37;;;;;;;;;;5087674;28;20694;-83
2022/02/01 15:28:20;;;;;;;11.60;7.30;;;;;;;;;;5088500;28;20483;-83
2022/02/01 15:30:46;;;;;;;9.30;6.80;;;;;;;;;;5099867;28;20364;-84
2022/02/01 15:33:14;;;;;;;10.30;7.00;;;;;;;;;;5087929;28;20385;-81
2022/02/01 15:35:41;;;;;;;8.57;7.30;;;;;;;;;;5090120;28;20545;-81
2022/02/01 15:38:08;;;;;;;8.82;6.72;;;;;;;;;;5100900;28;20377;-81
2022/02/01 15:57:05;;;;;;;8.80;7.00;;;;;;;;;;5106404;28;20399;-82
2022/02/01 15:59:34;;;;;;;9.25;7.03;;;;;;;;;;5085985;28;20791;-82
2022/02/01 16:02:12;;;;;;;8.02;7.32;;;;;;;;;;5108371;28;20387;-82
2022/02/01 16:04:43;;;;;;;8.70;7.90;;;;;;;;;;5086987;28;20406;-83
2022/02/01 16:07:13;;;;;;;7.13;6.22;;;;;;;;;;5089074;28;20374;-83
2022/02/01 16:09:49;;;;;;;7.20;6.03;;;;;;;;;;5086625;28;20395;-84
2022/02/01 16:12:23;;;;;;;6.43;5.90;;;;;;;;;;5087416;28;21004;-82
2022/02/01 16:14:49;;;;;;;5.75;5.25;;;;;;;;;;5109205;28;20794;-83
2022/02/01 16:17:15;;;;;;;6.50;5.90;;;;;;;;;;5085401;28;20371;-83
2022/02/01 16:19:41;;;;;;;6.30;5.63;;;;;;;;;;5105673;28;20366;-82
2022/02/01 16:22:07;;;;;;;6.70;6.10;;;;;;;;;;5106553;28;20386;-82
2022/02/01 16:24:36;;;;;;;7.40;6.70;;;;;;;;;;5093182;28;20424;-83
2022/02/01 16:27:02;;;;;;;6.87;6.27;;;;;;;;;;5085568;28;20386;-83
2022/02/01 16:29:28;;;;;;;7.00;6.40;;;;;;;;;;5106139;28;20371;-82
2022/02/01 16:31:54;;;;;;;7.20;6.60;;;;;;;;;;5084600;28;21100;-81
2022/02/01 16:34:23;;;;;;;6.37;5.87;;;;;;;;;;5104723;28;20382;-82
2022/02/01 16:36:49;;;;;;;6.70;6.20;;;;;;;;;;5105298;28;20470;-83
2022/02/01 16:39:16;;;;;;;7.05;6.45;;;;;;;;;;5104821;28;20884;-81
2022/02/01 16:41:44;;;;;;;6.90;6.20;;;;;;;;;;5084582;28;20390;-82
2022/02/01 16:44:11;;;;;;;7.28;6.68;;;;;;;;;;5105532;28;20374;-82
2022/02/01 16:46:40;;;;;;;7.43;6.82;;;;;;;;;;5104997;28;20383;-82
2022/02/01 16:49:06;;;;;;;7.05;6.45;;;;;;;;;;5104488;28;20863;-82
2022/02/01 16:51:33;;;;;;;7.72;7.03;;;;;;;;;;5089642;28;20388;-83
2022/02/01 16:54:05;;;;;;;8.07;7.30;;;;;;;;;;5101818;28;20394;-81
2022/02/01 16:59:30;;;;;;;7.90;7.20;;;;;;;;;;5105480;28;20432;-82
2022/02/01 17:01:56;;;;;;;7.93;7.22;;;;;;;;;;5103649;28;20430;-83
2022/02/01 17:04:22;;;;;;;8.43;7.63;;;;;;;;;;5088446;28;20741;-82
2022/02/01 17:06:48;;;;;;;9.88;8.98;;;;;;;;;;5105937;28;20406;-82
2022/02/01 17:09:16;;;;;;;9.90;8.90;;;;;;;;;;5105205;28;20379;-82
2022/02/01 17:15:07;;;;;;;10.55;9.60;;;;;;;;;;5105158;28;20383;-83
2022/02/01 17:22:14;;;;;;;13.82;12.63;;;;;;;;;;5104736;28;20394;-81
2022/02/01 17:24:40;;;;;;;15.88;14.32;;;;;;;;;;5084586;28;20830;-82